sensor_id;sensor_type;location;lat;lon;timestamp;temperature;humidity
19397;DHT22;9834;48.076;11.878;2022-07-09T00:01:22;9.60;99.90
19397;DHT22;9834;48.076;11.878;2022-07-09T00:03:50;9.50;99.90
19397;DHT22;9834;48.076;11.878;2022-07-09T00:06:20;9.50;99.90
19397;DHT22;9834;48.076;11.878;2022-07-09T00:08:54;9.50;99.90
19397;DHT22;9834;48.076;11.878;2022-07-09T00:11:21;9.40;99.90
19397;DHT22;9834;48.076;11.878;2022-07-09T00:13:48;9.40;99.90
19397;DHT22;9834;48.076;11.878;2022-07-09T00:16:16;9.40;99.90
19397;DHT22;9834;48.076;11.878;2022-07-09T00:18:43;9.40;99.90
19397;DHT22;9834;48.076;11.878;2022-07-09T00:21:10;9.30;99.90
19397;DHT22;9834;48.076;11.878;2022-07-09T00:23:37;9.30;99.90
19397;DHT22;9834;48.076;11.878;2022-07-09T00:26:07;9.30;99.90
19397;DHT22;9834;48.076;11.878;2022-07-09T00:28:34;9.20;99.90
19397;DHT22;9834;48.076;11.878;2022-07-09T00:31:01;9.20;99.90
19397;DHT22;9834;48.076;11.878;2022-07-09T00:33:29;9.20;99.90
19397;DHT22;9834;48.076;11.878;2022-07-09T00:35:59;9.20;99.90
19397;DHT22;9834;48.076;11.878;2022-07-09T00:38:26;9.10;99.90
19397;DHT22;9834;48.076;11.878;2022-07-09T00:40:53;9.10;99.90
19397;DHT22;9834;48.076;11.878;2022-07-09T00:43:21;9.10;99.90
19397;DHT22;9834;48.076;11.878;2022-07-09T00:45:49;9.10;99.90
19397;DHT22;9834;48.076;11.878;2022-07-09T00:48:16;9.00;99.90
19397;DHT22;9834;48.076;11.878;2022-07-09T00:50:47;9.00;99.90
19397;DHT22;9834;48.076;11.878;2022-07-09T00:53:18;9.00;99.90
19397;DHT22;9834;48.076;11.878;2022-07-09T00:55:47;9.00;99.90
19397;DHT22;9834;48.076;11.878;2022-07-09T00:58:16;9.00;99.90
19397;DHT22;9834;48.076;11.878;2022-07-09T01:00:44;9.00;99.90
19397;DHT22;9834;48.076;11.878;2022-07-09T01:03:13;9.00;99.90
19397;DHT22;9834;48.076;11.878;2022-07-09T01:05:41;9.00;99.90
19397;DHT22;9834;48.076;11.878;2022-07-09T01:08:10;9.00;99.90
19397;DHT22;9834;48.076;11.878;2022-07-09T01:10:39;9.10;99.90
19397;DHT22;9834;48.076;11.878;2022-07-09T01:13:08;9.20;99.90
19397;DHT22;9834;48.076;11.878;2022-07-09T01:15:35;9.20;99.90
19397;DHT22;9834;48.076;11.878;2022-07-09T01:18:09;9.30;99.90
19397;DHT22;9834;48.076;11.878;2022-07-09T01:20:40;9.40;99.90
19397;DHT22;9834;48.076;11.878;2022-07-09T01:23:07;9.50;99.90
19397;DHT22;9834;48.076;11.878;2022-07-09T01:25:36;9.60;99.90
19397;DHT22;9834;48.076;11.878;2022-07-09T01:28:05;9.70;99.90
19397;DHT22;9834;48.076;11.878;2022-07-09T01:30:34;9.80;99.90
19397;DHT22;9834;48.076;11.878;2022-07-09T01:33:03;9.90;99.90
19397;DHT22;9834;48.076;11.878;2022-07-09T01:35:30;9.90;99.90
19397;DHT22;9834;48.076;11.878;2022-07-09T01:37:58;10.00;99.90
19397;DHT22;9834;48.076;11.878;2022-07-09T01:40:25;10.00;99.90
19397;DHT22;9834;48.076;11.878;2022-07-09T01:42:54;10.10;99.90
19397;DHT22;9834;48.076;11.878;2022-07-09T01:45:22;10.10;99.90
19397;DHT22;9834;48.076;11.878;2022-07-09T01:47:50;10.20;99.90
19397;DHT22;9834;48.076;11.878;2022-07-09T01:50:19;10.30;99.90
19397;DHT22;9834;48.076;11.878;2022-07-09T01:52:46;10.40;99.90
19397;DHT22;9834;48.076;11.878;2022-07-09T01:55:16;10.40;99.90
19397;DHT22;9834;48.076;11.878;2022-07-09T01:57:43;10.50;99.90
19397;DHT22;9834;48.076;11.878;2022-07-09T02:00:10;10.50;99.90
19397;DHT22;9834;48.076;11.878;2022-07-09T02:05:20;10.60;99.90
19397;DHT22;9834;48.076;11.878;2022-07-09T02:07:47;10.60;99.90
19397;DHT22;9834;48.076;11.878;2022-07-09T02:10:20;10.70;99.90
19397;DHT22;9834;48.076;11.878;2022-07-09T02:12:48;10.70;99.90
19397;DHT22;9834;48.076;11.878;2022-07-09T02:15:15;10.70;99.90
19397;DHT22;9834;48.076;11.878;2022-07-09T02:17:42;10.80;99.90
19397;DHT22;9834;48.076;11.878;2022-07-09T02:20:10;10.80;99.90
19397;DHT22;9834;48.076;11.878;2022-07-09T02:22:37;10.80;99.90
19397;DHT22;9834;48.076;11.878;2022-07-09T02:25:06;10.80;99.90
19397;DHT22;9834;48.076;11.878;2022-07-09T02:27:34;10.90;99.90
19397;DHT22;9834;48.076;11.878;2022-07-09T02:30:02;10.90;99.90
19397;DHT22;9834;48.076;11.878;2022-07-09T02:32:29;10.80;99.90
19397;DHT22;9834;48.076;11.878;2022-07-09T02:35:00;10.80;99.90
19397;DHT22;9834;48.076;11.878;2022-07-09T02:37:27;10.90;99.90
19397;DHT22;9834;48.076;11.878;2022-07-09T02:39:54;10.80;99.90
19397;DHT22;9834;48.076;11.878;2022-07-09T02:42:24;10.80;99.90
19397;DHT22;9834;48.076;11.878;2022-07-09T02:44:53;10.80;99.90
19397;DHT22;9834;48.076;11.878;2022-07-09T02:47:22;10.80;99.90
19397;DHT22;9834;48.076;11.878;2022-07-09T02:49:49;10.70;99.90
19397;DHT22;9834;48.076;11.878;2022-07-09T02:52:16;10.80;99.90
19397;DHT22;9834;48.076;11.878;2022-07-09T02:54:47;10.80;99.90
19397;DHT22;9834;48.076;11.878;2022-07-09T02:57:14;10.80;99.90
19397;DHT22;9834;48.076;11.878;2022-07-09T02:59:40;10.80;99.90
19397;DHT22;9834;48.076;11.878;2022-07-09T03:02:12;10.80;99.90
19397;DHT22;9834;48.076;11.878;2022-07-09T03:04:40;10.80;99.90
19397;DHT22;9834;48.076;11.878;2022-07-09T03:07:07;10.90;99.90
19397;DHT22;9834;48.076;11.878;2022-07-09T03:09:34;10.90;99.90
19397;DHT22;9834;48.076;11.878;2022-07-09T03:12:01;11.00;99.90
19397;DHT22;9834;48.076;11.878;2022-07-09T03:14:32;11.10;99.90
19397;DHT22;9834;48.076;11.878;2022-07-09T03:17:02;11.10;99.90
19397;DHT22;9834;48.076;11.878;2022-07-09T03:19:31;11.10;99.90
19397;DHT22;9834;48.076;11.878;2022-07-09T03:21:58;11.20;99.90
19397;DHT22;9834;48.076;11.878;2022-07-09T03:24:26;11.20;99.90
19397;DHT22;9834;48.076;11.878;2022-07-09T03:26:56;11.20;99.90
19397;DHT22;9834;48.076;11.878;2022-07-09T03:29:23;11.20;99.90
19397;DHT22;9834;48.076;11.878;2022-07-09T03:31:52;11.30;99.90
19397;DHT22;9834;48.076;11.878;2022-07-09T03:34:21;11.30;99.90
19397;DHT22;9834;48.076;11.878;2022-07-09T03:36:49;11.40;99.90
19397;DHT22;9834;48.076;11.878;2022-07-09T03:39:16;11.40;99.90
19397;DHT22;9834;48.076;11.878;2022-07-09T03:41:43;11.50;99.90
19397;DHT22;9834;48.076;11.878;2022-07-09T03:44:12;11.50;99.90
19397;DHT22;9834;48.076;11.878;2022-07-09T03:46:39;11.50;99.90
19397;DHT22;9834;48.076;11.878;2022-07-09T03:49:06;11.60;99.90
19397;DHT22;9834;48.076;11.878;2022-07-09T03:51:48;11.70;99.90
19397;DHT22;9834;48.076;11.878;2022-07-09T03:54:21;11.70;99.90
19397;DHT22;9834;48.076;11.878;2022-07-09T03:56:48;11.80;99.90
19397;DHT22;9834;48.076;11.878;2022-07-09T03:59:15;11.90;99.90
19397;DHT22;9834;48.076;11.878;2022-07-09T04:01:42;11.90;99.90
19397;DHT22;9834;48.076;11.878;2022-07-09T04:04:09;12.00;99.90
19397;DHT22;9834;48.076;11.878;2022-07-09T04:06:38;12.10;99.90
19397;DHT22;9834;48.076;11.878;2022-07-09T04:09:08;12.10;99.90
19397;DHT22;9834;48.076;11.878;2022-07-09T04:11:35;12.30;99.90
19397;DHT22;9834;48.076;11.878;2022-07-09T04:14:02;12.30;99.90
19397;DHT22;9834;48.076;11.878;2022-07-09T04:16:32;12.40;99.90
19397;DHT22;9834;48.076;11.878;2022-07-09T04:18:59;12.50;99.90
19397;DHT22;9834;48.076;11.878;2022-07-09T04:21:26;12.60;99.90
19397;DHT22;9834;48.076;11.878;2022-07-09T04:23:55;12.70;99.90
19397;DHT22;9834;48.076;11.878;2022-07-09T04:26:24;12.80;99.90
19397;DHT22;9834;48.076;11.878;2022-07-09T04:28:51;12.80;99.90
19397;DHT22;9834;48.076;11.878;2022-07-09T04:31:18;12.90;99.90
19397;DHT22;9834;48.076;11.878;2022-07-09T04:33:46;13.00;99.90
19397;DHT22;9834;48.076;11.878;2022-07-09T04:36:14;13.10;99.90
19397;DHT22;9834;48.076;11.878;2022-07-09T04:38:41;13.30;99.90
19397;DHT22;9834;48.076;11.878;2022-07-09T04:41:08;13.30;99.90
19397;DHT22;9834;48.076;11.878;2022-07-09T04:43:39;13.40;99.90
19397;DHT22;9834;48.076;11.878;2022-07-09T04:46:08;13.50;99.90
19397;DHT22;9834;48.076;11.878;2022-07-09T04:48:35;13.70;99.90
19397;DHT22;9834;48.076;11.878;2022-07-09T04:51:03;13.80;99.90
19397;DHT22;9834;48.076;11.878;2022-07-09T04:53:30;13.80;99.90
19397;DHT22;9834;48.076;11.878;2022-07-09T04:55:59;13.90;99.90
19397;DHT22;9834;48.076;11.878;2022-07-09T04:58:28;13.90;99.90
19397;DHT22;9834;48.076;11.878;2022-07-09T05:00:56;13.90;99.90
19397;DHT22;9834;48.076;11.878;2022-07-09T05:03:23;13.90;99.90
19397;DHT22;9834;48.076;11.878;2022-07-09T05:05:53;13.90;99.90
19397;DHT22;9834;48.076;11.878;2022-07-09T05:08:20;14.00;99.90
19397;DHT22;9834;48.076;11.878;2022-07-09T05:10:49;14.00;99.90
19397;DHT22;9834;48.076;11.878;2022-07-09T05:13:16;14.10;99.90
19397;DHT22;9834;48.076;11.878;2022-07-09T05:15:43;14.10;99.90
19397;DHT22;9834;48.076;11.878;2022-07-09T05:18:14;14.20;99.90
19397;DHT22;9834;48.076;11.878;2022-07-09T05:20:41;14.30;99.90
19397;DHT22;9834;48.076;11.878;2022-07-09T05:23:10;14.40;99.90
19397;DHT22;9834;48.076;11.878;2022-07-09T05:25:41;14.50;99.90
19397;DHT22;9834;48.076;11.878;2022-07-09T05:28:11;14.50;99.90
19397;DHT22;9834;48.076;11.878;2022-07-09T05:30:38;14.60;99.90
19397;DHT22;9834;48.076;11.878;2022-07-09T05:33:05;14.70;99.90
19397;DHT22;9834;48.076;11.878;2022-07-09T05:35:35;14.70;99.90
19397;DHT22;9834;48.076;11.878;2022-07-09T05:38:06;14.70;99.90
19397;DHT22;9834;48.076;11.878;2022-07-09T05:40:33;14.80;99.90
19397;DHT22;9834;48.076;11.878;2022-07-09T05:43:03;14.90;99.90
19397;DHT22;9834;48.076;11.878;2022-07-09T05:45:30;15.00;99.90
19397;DHT22;9834;48.076;11.878;2022-07-09T05:47:57;15.00;99.90
19397;DHT22;9834;48.076;11.878;2022-07-09T05:50:25;15.20;99.90
19397;DHT22;9834;48.076;11.878;2022-07-09T05:52:53;15.40;99.90
19397;DHT22;9834;48.076;11.878;2022-07-09T05:55:20;15.50;99.90
19397;DHT22;9834;48.076;11.878;2022-07-09T05:57:47;15.60;99.90
19397;DHT22;9834;48.076;11.878;2022-07-09T06:00:17;15.70;99.90
19397;DHT22;9834;48.076;11.878;2022-07-09T06:02:44;15.80;99.90
19397;DHT22;9834;48.076;11.878;2022-07-09T06:05:11;16.00;99.90
19397;DHT22;9834;48.076;11.878;2022-07-09T06:07:38;15.90;99.90
19397;DHT22;9834;48.076;11.878;2022-07-09T06:10:12;16.00;99.90
19397;DHT22;9834;48.076;11.878;2022-07-09T06:12:43;16.10;99.90
19397;DHT22;9834;48.076;11.878;2022-07-09T06:15:10;16.20;99.90
19397;DHT22;9834;48.076;11.878;2022-07-09T06:17:37;16.10;99.90
19397;DHT22;9834;48.076;11.878;2022-07-09T06:20:07;16.10;99.90
19397;DHT22;9834;48.076;11.878;2022-07-09T06:22:35;16.20;99.90
19397;DHT22;9834;48.076;11.878;2022-07-09T06:25:02;16.30;99.90
19397;DHT22;9834;48.076;11.878;2022-07-09T06:27:31;16.40;99.90
19397;DHT22;9834;48.076;11.878;2022-07-09T06:29:58;16.50;99.90
19397;DHT22;9834;48.076;11.878;2022-07-09T06:32:25;16.60;99.90
19397;DHT22;9834;48.076;11.878;2022-07-09T06:34:52;16.70;99.90
19397;DHT22;9834;48.076;11.878;2022-07-09T06:37:19;16.70;99.90
19397;DHT22;9834;48.076;11.878;2022-07-09T06:39:46;16.70;99.90
19397;DHT22;9834;48.076;11.878;2022-07-09T06:42:15;16.70;99.90
19397;DHT22;9834;48.076;11.878;2022-07-09T06:44:51;16.80;99.90
19397;DHT22;9834;48.076;11.878;2022-07-09T06:47:18;16.90;99.90
19397;DHT22;9834;48.076;11.878;2022-07-09T06:49:45;17.10;99.90
19397;DHT22;9834;48.076;11.878;2022-07-09T06:52:12;17.50;99.90
19397;DHT22;9834;48.076;11.878;2022-07-09T06:54:53;17.70;99.90
19397;DHT22;9834;48.076;11.878;2022-07-09T06:57:20;17.80;99.90
19397;DHT22;9834;48.076;11.878;2022-07-09T06:59:49;17.80;99.90
19397;DHT22;9834;48.076;11.878;2022-07-09T07:02:18;17.80;99.90
19397;DHT22;9834;48.076;11.878;2022-07-09T07:04:48;17.80;99.90
19397;DHT22;9834;48.076;11.878;2022-07-09T07:07:18;18.00;99.90
19397;DHT22;9834;48.076;11.878;2022-07-09T07:09:45;18.10;99.90
19397;DHT22;9834;48.076;11.878;2022-07-09T07:12:13;18.20;99.90
19397;DHT22;9834;48.076;11.878;2022-07-09T07:14:40;18.10;99.90
19397;DHT22;9834;48.076;11.878;2022-07-09T07:17:11;18.10;99.90
19397;DHT22;9834;48.076;11.878;2022-07-09T07:19:42;18.00;99.90
19397;DHT22;9834;48.076;11.878;2022-07-09T07:22:12;18.00;99.90
19397;DHT22;9834;48.076;11.878;2022-07-09T07:24:39;18.10;99.90
19397;DHT22;9834;48.076;11.878;2022-07-09T07:27:08;18.10;99.90
19397;DHT22;9834;48.076;11.878;2022-07-09T07:29:35;18.00;99.90
19397;DHT22;9834;48.076;11.878;2022-07-09T07:32:02;18.10;99.90
19397;DHT22;9834;48.076;11.878;2022-07-09T07:34:31;18.10;99.60
19397;DHT22;9834;48.076;11.878;2022-07-09T07:36:58;18.20;99.50
19397;DHT22;9834;48.076;11.878;2022-07-09T07:39:25;18.20;99.90
19397;DHT22;9834;48.076;11.878;2022-07-09T07:41:56;18.40;99.50
19397;DHT22;9834;48.076;11.878;2022-07-09T07:44:23;18.50;98.80
19397;DHT22;9834;48.076;11.878;2022-07-09T07:46:50;18.80;99.00
19397;DHT22;9834;48.076;11.878;2022-07-09T07:49:17;19.00;98.90
19397;DHT22;9834;48.076;11.878;2022-07-09T07:51:46;19.20;97.70
19397;DHT22;9834;48.076;11.878;2022-07-09T07:54:16;19.20;96.80
19397;DHT22;9834;48.076;11.878;2022-07-09T07:56:42;19.40;96.70
19397;DHT22;9834;48.076;11.878;2022-07-09T07:59:09;19.60;96.30
19397;DHT22;9834;48.076;11.878;2022-07-09T08:01:39;19.60;94.40
19397;DHT22;9834;48.076;11.878;2022-07-09T08:04:06;19.90;94.60
19397;DHT22;9834;48.076;11.878;2022-07-09T08:06:33;20.00;93.60
19397;DHT22;9834;48.076;11.878;2022-07-09T08:09:02;20.20;92.70
19397;DHT22;9834;48.076;11.878;2022-07-09T08:11:29;20.10;93.10
19397;DHT22;9834;48.076;11.878;2022-07-09T08:13:56;20.40;91.80
19397;DHT22;9834;48.076;11.878;2022-07-09T08:16:23;20.60;89.80
19397;DHT22;9834;48.076;11.878;2022-07-09T08:18:52;20.50;90.00
19397;DHT22;9834;48.076;11.878;2022-07-09T08:21:19;20.50;90.70
19397;DHT22;9834;48.076;11.878;2022-07-09T08:23:46;20.40;90.10
19397;DHT22;9834;48.076;11.878;2022-07-09T08:26:23;20.50;90.00
19397;DHT22;9834;48.076;11.878;2022-07-09T08:28:55;20.50;88.70
19397;DHT22;9834;48.076;11.878;2022-07-09T08:31:22;20.50;90.20
19397;DHT22;9834;48.076;11.878;2022-07-09T08:33:51;20.60;91.00
19397;DHT22;9834;48.076;11.878;2022-07-09T08:36:18;20.60;90.70
19397;DHT22;9834;48.076;11.878;2022-07-09T08:38:45;20.60;88.80
19397;DHT22;9834;48.076;11.878;2022-07-09T08:41:15;20.60;85.80
19397;DHT22;9834;48.076;11.878;2022-07-09T08:43:50;20.60;91.40
19397;DHT22;9834;48.076;11.878;2022-07-09T08:46:19;20.70;86.90
19397;DHT22;9834;48.076;11.878;2022-07-09T08:48:47;20.90;87.00
19397;DHT22;9834;48.076;11.878;2022-07-09T08:51:18;21.00;85.90
19397;DHT22;9834;48.076;11.878;2022-07-09T08:53:46;20.90;82.70
19397;DHT22;9834;48.076;11.878;2022-07-09T08:56:19;21.10;86.10
19397;DHT22;9834;48.076;11.878;2022-07-09T08:59:01;21.40;83.50
19397;DHT22;9834;48.076;11.878;2022-07-09T09:01:28;21.50;83.80
19397;DHT22;9834;48.076;11.878;2022-07-09T09:03:55;21.50;82.50
19397;DHT22;9834;48.076;11.878;2022-07-09T09:06:22;21.50;81.00
19397;DHT22;9834;48.076;11.878;2022-07-09T09:08:53;21.20;81.40
19397;DHT22;9834;48.076;11.878;2022-07-09T09:11:23;20.80;81.70
19397;DHT22;9834;48.076;11.878;2022-07-09T09:13:50;20.50;83.00
19397;DHT22;9834;48.076;11.878;2022-07-09T09:16:23;20.40;83.20
19397;DHT22;9834;48.076;11.878;2022-07-09T09:18:51;20.30;84.80
19397;DHT22;9834;48.076;11.878;2022-07-09T09:21:20;20.30;87.40
19397;DHT22;9834;48.076;11.878;2022-07-09T09:23:48;20.20;88.90
19397;DHT22;9834;48.076;11.878;2022-07-09T09:26:17;20.20;87.20
19397;DHT22;9834;48.076;11.878;2022-07-09T09:28:51;20.20;85.70
19397;DHT22;9834;48.076;11.878;2022-07-09T09:31:21;20.30;82.10
19397;DHT22;9834;48.076;11.878;2022-07-09T09:33:49;20.20;84.10
19397;DHT22;9834;48.076;11.878;2022-07-09T09:36:33;20.20;86.10
19397;DHT22;9834;48.076;11.878;2022-07-09T09:39:23;20.30;87.80
19397;DHT22;9834;48.076;11.878;2022-07-09T09:41:53;20.50;86.50
19397;DHT22;9834;48.076;11.878;2022-07-09T09:44:25;20.60;78.70
19397;DHT22;9834;48.076;11.878;2022-07-09T09:46:56;20.60;78.50
19397;DHT22;9834;48.076;11.878;2022-07-09T09:49:24;20.60;75.30
19397;DHT22;9834;48.076;11.878;2022-07-09T09:51:56;20.60;80.30
19397;DHT22;9834;48.076;11.878;2022-07-09T09:54:27;20.80;78.40
19397;DHT22;9834;48.076;11.878;2022-07-09T09:56:58;21.00;77.10
19397;DHT22;9834;48.076;11.878;2022-07-09T09:59:26;21.40;77.40
19397;DHT22;9834;48.076;11.878;2022-07-09T10:01:53;21.60;70.90
19397;DHT22;9834;48.076;11.878;2022-07-09T10:04:22;21.80;71.00
19397;DHT22;9834;48.076;11.878;2022-07-09T10:06:50;22.00;69.30
19397;DHT22;9834;48.076;11.878;2022-07-09T10:09:18;22.20;69.40
19397;DHT22;9834;48.076;11.878;2022-07-09T10:11:48;22.50;70.90
19397;DHT22;9834;48.076;11.878;2022-07-09T10:14:17;22.60;68.10
19397;DHT22;9834;48.076;11.878;2022-07-09T10:16:47;22.80;66.40
19397;DHT22;9834;48.076;11.878;2022-07-09T10:19:26;23.40;67.60
19397;DHT22;9834;48.076;11.878;2022-07-09T10:21:55;24.20;68.20
19397;DHT22;9834;48.076;11.878;2022-07-09T10:24:26;25.90;59.50
19397;DHT22;9834;48.076;11.878;2022-07-09T10:27:02;27.20;53.70
19397;DHT22;9834;48.076;11.878;2022-07-09T10:29:32;26.20;53.00
19397;DHT22;9834;48.076;11.878;2022-07-09T10:32:00;26.50;54.10
19397;DHT22;9834;48.076;11.878;2022-07-09T10:35:03;27.50;53.00
19397;DHT22;9834;48.076;11.878;2022-07-09T10:37:35;27.90;52.10
19397;DHT22;9834;48.076;11.878;2022-07-09T10:40:13;26.60;52.40
19397;DHT22;9834;48.076;11.878;2022-07-09T10:42:42;25.70;52.80
19397;DHT22;9834;48.076;11.878;2022-07-09T10:45:22;25.50;54.90
19397;DHT22;9834;48.076;11.878;2022-07-09T10:47:53;26.90;54.00
19397;DHT22;9834;48.076;11.878;2022-07-09T10:50:22;29.50;48.20
19397;DHT22;9834;48.076;11.878;2022-07-09T10:52:50;30.50;42.10
19397;DHT22;9834;48.076;11.878;2022-07-09T10:55:19;29.70;43.50
19397;DHT22;9834;48.076;11.878;2022-07-09T10:57:50;29.00;44.50
19397;DHT22;9834;48.076;11.878;2022-07-09T11:00:18;28.20;46.20
19397;DHT22;9834;48.076;11.878;2022-07-09T11:02:57;27.60;48.20
19397;DHT22;9834;48.076;11.878;2022-07-09T11:05:30;28.90;46.90
19397;DHT22;9834;48.076;11.878;2022-07-09T11:08:00;30.00;45.00
19397;DHT22;9834;48.076;11.878;2022-07-09T11:10:28;30.50;45.00
19397;DHT22;9834;48.076;11.878;2022-07-09T11:12:56;29.90;46.10
19397;DHT22;9834;48.076;11.878;2022-07-09T11:15:24;28.70;44.30
19397;DHT22;9834;48.076;11.878;2022-07-09T11:17:57;27.70;45.90
19397;DHT22;9834;48.076;11.878;2022-07-09T11:20:26;27.30;45.10
19397;DHT22;9834;48.076;11.878;2022-07-09T11:22:53;27.10;45.20
19397;DHT22;9834;48.076;11.878;2022-07-09T11:25:29;26.40;47.70
19397;DHT22;9834;48.076;11.878;2022-07-09T11:27:58;25.90;48.90
19397;DHT22;9834;48.076;11.878;2022-07-09T11:30:29;25.40;50.00
19397;DHT22;9834;48.076;11.878;2022-07-09T11:32:58;24.60;50.40
19397;DHT22;9834;48.076;11.878;2022-07-09T11:35:30;24.00;52.70
19397;DHT22;9834;48.076;11.878;2022-07-09T11:37:59;23.80;52.50
19397;DHT22;9834;48.076;11.878;2022-07-09T11:40:28;23.70;53.80
19397;DHT22;9834;48.076;11.878;2022-07-09T11:42:55;23.60;52.10
19397;DHT22;9834;48.076;11.878;2022-07-09T11:45:25;23.30;52.70
19397;DHT22;9834;48.076;11.878;2022-07-09T11:48:05;23.10;53.00
19397;DHT22;9834;48.076;11.878;2022-07-09T11:50:43;23.00;52.90
19397;DHT22;9834;48.076;11.878;2022-07-09T11:53:19;23.10;54.10
19397;DHT22;9834;48.076;11.878;2022-07-09T11:55:58;23.40;54.50
19397;DHT22;9834;48.076;11.878;2022-07-09T11:58:27;23.80;55.50
19397;DHT22;9834;48.076;11.878;2022-07-09T12:00:57;24.20;58.50
19397;DHT22;9834;48.076;11.878;2022-07-09T12:03:26;24.80;55.20
19397;DHT22;9834;48.076;11.878;2022-07-09T12:05:54;27.00;55.50
19397;DHT22;9834;48.076;11.878;2022-07-09T12:08:34;29.70;48.10
19397;DHT22;9834;48.076;11.878;2022-07-09T12:11:02;30.00;46.30
19397;DHT22;9834;48.076;11.878;2022-07-09T12:13:29;29.70;44.80
19397;DHT22;9834;48.076;11.878;2022-07-09T12:15:56;30.10;44.20
19397;DHT22;9834;48.076;11.878;2022-07-09T12:18:25;31.30;43.50
19397;DHT22;9834;48.076;11.878;2022-07-09T12:20:56;32.30;43.40
19397;DHT22;9834;48.076;11.878;2022-07-09T12:23:27;33.40;38.90
19397;DHT22;9834;48.076;11.878;2022-07-09T12:25:56;33.60;42.40
19397;DHT22;9834;48.076;11.878;2022-07-09T12:28:23;34.30;35.90
19397;DHT22;9834;48.076;11.878;2022-07-09T12:30:50;34.70;34.70
19397;DHT22;9834;48.076;11.878;2022-07-09T12:33:17;34.80;35.70
19397;DHT22;9834;48.076;11.878;2022-07-09T12:35:44;34.40;34.20
19397;DHT22;9834;48.076;11.878;2022-07-09T12:38:14;34.70;38.50
19397;DHT22;9834;48.076;11.878;2022-07-09T12:40:41;35.50;33.70
19397;DHT22;9834;48.076;11.878;2022-07-09T12:43:08;34.30;35.80
19397;DHT22;9834;48.076;11.878;2022-07-09T12:45:37;32.40;37.70
19397;DHT22;9834;48.076;11.878;2022-07-09T12:48:04;30.80;39.10
19397;DHT22;9834;48.076;11.878;2022-07-09T12:50:35;29.70;41.00
19397;DHT22;9834;48.076;11.878;2022-07-09T12:53:04;29.10;43.80
19397;DHT22;9834;48.076;11.878;2022-07-09T12:55:38;28.40;42.00
19397;DHT22;9834;48.076;11.878;2022-07-09T12:58:05;27.40;45.70
19397;DHT22;9834;48.076;11.878;2022-07-09T13:00:32;27.00;45.60
19397;DHT22;9834;48.076;11.878;2022-07-09T13:02:59;26.80;45.50
19397;DHT22;9834;48.076;11.878;2022-07-09T13:05:26;26.90;45.30
19397;DHT22;9834;48.076;11.878;2022-07-09T13:07:53;27.50;45.00
19397;DHT22;9834;48.076;11.878;2022-07-09T13:10:22;27.60;46.30
19397;DHT22;9834;48.076;11.878;2022-07-09T13:12:50;28.00;43.50
19397;DHT22;9834;48.076;11.878;2022-07-09T13:15:21;28.80;46.40
19397;DHT22;9834;48.076;11.878;2022-07-09T13:17:49;29.90;43.90
19397;DHT22;9834;48.076;11.878;2022-07-09T13:20:16;30.60;39.70
19397;DHT22;9834;48.076;11.878;2022-07-09T13:22:43;31.90;39.50
19397;DHT22;9834;48.076;11.878;2022-07-09T13:25:10;33.60;37.00
19397;DHT22;9834;48.076;11.878;2022-07-09T13:27:37;33.10;36.40
19397;DHT22;9834;48.076;11.878;2022-07-09T13:30:07;32.40;37.20
19397;DHT22;9834;48.076;11.878;2022-07-09T13:32:34;31.80;37.60
19397;DHT22;9834;48.076;11.878;2022-07-09T13:35:02;30.70;40.10
19397;DHT22;9834;48.076;11.878;2022-07-09T13:37:34;29.40;42.60
19397;DHT22;9834;48.076;11.878;2022-07-09T13:40:01;28.20;44.80
19397;DHT22;9834;48.076;11.878;2022-07-09T13:42:28;27.40;44.80
19397;DHT22;9834;48.076;11.878;2022-07-09T13:44:55;27.40;45.50
19397;DHT22;9834;48.076;11.878;2022-07-09T13:47:27;27.50;47.60
19397;DHT22;9834;48.076;11.878;2022-07-09T13:49:54;27.70;45.20
19397;DHT22;9834;48.076;11.878;2022-07-09T13:52:24;28.20;45.40
19397;DHT22;9834;48.076;11.878;2022-07-09T13:54:50;30.60;42.80
19397;DHT22;9834;48.076;11.878;2022-07-09T13:57:19;32.30;37.80
19397;DHT22;9834;48.076;11.878;2022-07-09T13:59:46;33.60;36.60
19397;DHT22;9834;48.076;11.878;2022-07-09T14:02:13;35.30;34.10
19397;DHT22;9834;48.076;11.878;2022-07-09T14:04:43;35.30;32.00
19397;DHT22;9834;48.076;11.878;2022-07-09T14:07:12;33.50;35.50
19397;DHT22;9834;48.076;11.878;2022-07-09T14:09:39;31.70;38.40
19397;DHT22;9834;48.076;11.878;2022-07-09T14:12:06;29.80;40.90
19397;DHT22;9834;48.076;11.878;2022-07-09T14:14:33;30.20;44.30
19397;DHT22;9834;48.076;11.878;2022-07-09T14:17:01;30.80;41.60
19397;DHT22;9834;48.076;11.878;2022-07-09T14:19:28;30.20;40.70
19397;DHT22;9834;48.076;11.878;2022-07-09T14:21:57;29.50;41.30
19397;DHT22;9834;48.076;11.878;2022-07-09T14:24:24;28.40;45.00
19397;DHT22;9834;48.076;11.878;2022-07-09T14:26:51;27.20;45.10
19397;DHT22;9834;48.076;11.878;2022-07-09T14:29:18;26.60;45.00
19397;DHT22;9834;48.076;11.878;2022-07-09T14:31:45;26.30;47.20
19397;DHT22;9834;48.076;11.878;2022-07-09T14:34:12;26.50;47.90
19397;DHT22;9834;48.076;11.878;2022-07-09T14:36:41;27.30;46.00
19397;DHT22;9834;48.076;11.878;2022-07-09T14:39:12;27.50;45.90
19397;DHT22;9834;48.076;11.878;2022-07-09T14:41:39;27.20;46.00
19397;DHT22;9834;48.076;11.878;2022-07-09T14:44:06;26.70;46.60
19397;DHT22;9834;48.076;11.878;2022-07-09T14:46:33;26.00;47.30
19397;DHT22;9834;48.076;11.878;2022-07-09T14:49:00;25.30;49.10
19397;DHT22;9834;48.076;11.878;2022-07-09T14:51:30;24.80;51.40
19397;DHT22;9834;48.076;11.878;2022-07-09T14:53:58;24.30;51.70
19397;DHT22;9834;48.076;11.878;2022-07-09T14:56:27;24.00;53.80
19397;DHT22;9834;48.076;11.878;2022-07-09T14:58:54;23.80;53.50
19397;DHT22;9834;48.076;11.878;2022-07-09T15:01:40;23.60;56.40
19397;DHT22;9834;48.076;11.878;2022-07-09T15:04:07;23.50;55.00
19397;DHT22;9834;48.076;11.878;2022-07-09T15:06:53;23.50;54.50
19397;DHT22;9834;48.076;11.878;2022-07-09T15:16:06;23.60;54.20
19397;DHT22;9834;48.076;11.878;2022-07-09T15:18:41;23.60;53.50
19397;DHT22;9834;48.076;11.878;2022-07-09T15:21:08;23.50;53.80
19397;DHT22;9834;48.076;11.878;2022-07-09T15:23:36;23.30;55.10
19397;DHT22;9834;48.076;11.878;2022-07-09T15:26:05;23.10;56.20
19397;DHT22;9834;48.076;11.878;2022-07-09T15:28:32;23.00;58.50
19397;DHT22;9834;48.076;11.878;2022-07-09T15:30:59;22.90;56.70
19397;DHT22;9834;48.076;11.878;2022-07-09T15:33:28;22.90;58.30
19397;DHT22;9834;48.076;11.878;2022-07-09T15:35:57;23.00;58.50
19397;DHT22;9834;48.076;11.878;2022-07-09T15:41:51;23.40;58.30
19397;DHT22;9834;48.076;11.878;2022-07-09T15:44:21;23.80;56.60
19397;DHT22;9834;48.076;11.878;2022-07-09T15:46:48;24.00;56.20
19397;DHT22;9834;48.076;11.878;2022-07-09T15:49:18;24.40;55.50
19397;DHT22;9834;48.076;11.878;2022-07-09T15:51:46;24.50;57.60
19397;DHT22;9834;48.076;11.878;2022-07-09T15:54:14;24.40;55.20
19397;DHT22;9834;48.076;11.878;2022-07-09T15:56:44;24.20;55.50